Главная страница
METAR-TAF:

METAR-TAF

Аэропорты :

Хоннингсвог, Норвегия

широта: 71-01N, долгота: 025-59E, высота над уровнем моря: 1 м

Текущие метеонаблюдения

Эта сводка был подготовлена 27 минут назад, в 20:20 UTC
Ветер 8 Узел от северный
Температура 7°C
Влажность 87%
Давление 1016 hPa
Видимость 10 км и более
небольшая облачность на высоте 1200 фута

METAR: ENHV 132020Z 35008KT 9999 FEW012 07/05 Q1016

Время: 22:47 (20:47 UTC)

Прогноз

Эта сводка был подготовлена 6 часа и 47 минут назад, в 14:00 UTC
Прогноз действительный с 13-го 15 UTC до 13-го 22 UTC
Ветер 15 Узел от северо-северо-восточный
Видимость 10 км и более
Рассеянная облачность на высоте 1600 фута
Вероятность 40% :
временами
С 13-го 15 UTC до 13-го 18 UTC
Рассеянная облачность на высоте 1400 фута
изменения
С 13-го 18 UTC до 13-го 21 UTC
Ветер 5 Узел от северный

TAF: ENHV 131400Z 1315/1322 03015KT 9999 BKN016 PROB40 TEMPO 1315/1318 BKN014 BECMG 1318/1321 01005KT

Метеонаблюдения и прогнозы для более 4000 аэропортов (сводки METAR и TAF).

Имеющиеся станции представлены на карте желтыми и красными точками.

Чтобы увидеть название станции, наведите на нее мышь.

Затем щелкните, чтобы увидеть метеонаблюдения и метеопрогнозы.

Управление картой: чтобы увеличить масштаб, щелкните зеленые кнопки с черным крестиком; чтобы уменьшить масштаб, щелкните зеленую кнопку с тире; для просмотра соседних карт щелкайте зеленые стрелки.


METAR-TAF: